Latest Coastal Weather Observations for Gove Airport

IDD60701

Issued at 2:55 pm CST Saturday 25 October 2014 (issued every 10 minutes, with the page automatically refreshed every 10 minutes)

About coastal observations | Map of coastal stations | Coastal observations for NT | Marine services | Other Formats
Station Details ID: 014508 Name: GOVE AIRPORT Lat: -12.27 Lon: 136.82 Height: 51.6 m
Data from the previous 72 hours. | See also: Recent months at Gove Airport
Date/Time
CST
Temp

°C
Wind Pressure Rain
since 9am
mm
Weather Cloud Vis
km
Sea
Height
m
Swell
Dir
 
Speed
knots
Gust
knots
hPa Trend Height
m
Period
s
Dir
25/02:30pm 30.0 E 10 16 1013.2 - 0.0 - Mostly clear 10 - - - -
25/02:00pm 29.8 E 11 16 1013.4 - 0.0 - Partly cloudy 10 - - - -
25/01:30pm 30.0 E 11 15 1013.7 - 0.0 - Partly cloudy 10 - - - -
25/01:00pm 29.9 E 12 19 1014.0 - 0.0 - Partly cloudy 10 - - - -
25/12:30pm 29.5 E 13 19 1014.3 - 0.0 - Partly cloudy 10 - - - -
25/12:00pm 29.9 ESE 13 17 1014.3 F 0.0 Haze Partly cloudy 18 - - - -
25/11:30am 29.6 ESE 13 17 1015.1 - 0.0 - Partly cloudy 10 - - - -
25/11:00am 29.8 E 13 19 1015.3 - 0.0 - Partly cloudy 10 - - - -
25/10:30am 29.0 E 11 16 1015.7 - 0.0 - Partly cloudy 10 - - - -
25/10:00am 28.6 E 11 16 1015.8 - 0.0 - Partly cloudy 10 - - - -
25/09:30am 28.8 E 12 17 1016.0 - 0.0 - Partly cloudy 10 - - - -
25/09:00am 28.7 ESE 12 17 1016.0 F 0.0 Fine Partly cloudy 10 - - - -
25/08:30am 28.1 E 10 15 1016.0 - 0.0 - Partly cloudy 10 - - - -
25/08:00am 27.4 E 8 11 1015.8 - 0.0 - Mostly clear 10 - - - -
25/07:30am 26.4 ESE 6 8 1015.5 - 0.0 - - 10 - - - -
25/07:00am 23.5 CALM 0 1 1015.2 - 0.0 - Mostly clear 10 - - - -
25/06:30am 20.9 CALM 0 0 1014.9 - 0.0 - Mostly clear 10 - - - -
25/06:00am 19.7 CALM 0 0 1014.1 F 0.0 Mist Mostly clear 22 - - - -
25/05:30am 19.9 S 3 6 1014.0 - 0.0 - - 10 - - - -
25/05:00am 19.7 SSW 1 4 1014.0 - 0.0 - - 10 - - - -
25/04:30am 19.7 SE 3 4 1013.8 - 0.0 - - 10 - - - -
25/04:00am 20.1 SSE 4 5 1013.6 - 0.0 - - 10 - - - -
25/03:30am 20.2 CALM 0 0 1013.6 - 0.0 - - 10 - - - -
25/03:00am 20.3 CALM 0 0 1013.1 - 0.0 - - 10 - - - -
25/02:30am 20.5 CALM 0 0 1013.5 - 0.0 - Partly cloudy 10 - - - -
25/02:00am 20.4 ESE 3 5 1013.9 - 0.0 - Partly cloudy 10 - - - -
25/01:30am 20.0 CALM 0 0 1013.9 - 0.0 - - 10 - - - -
25/01:00am 20.5 CALM 0 0 1014.3 - 0.0 - - 10 - - - -
25/12:30am 20.2 CALM 0 0 1014.3 - 0.0 - - 10 - - - -
25/12:00am 20.7 ESE 0 0 1014.5 - 0.0 - Partly cloudy 10 - - - -
 
Date/Time
CST
Temp

°C
Wind Pressure Rain
since 9am
mm
Weather Cloud Vis
km
Sea
Height
m
Swell
Dir
 
Speed
knots
Gust
knots
hPa Trend Height
m
Period
s
Dir
24/11:30pm 20.8 CALM 0 0 1014.9 - 0.0 - Partly cloudy 10 - - - -
24/11:00pm 20.7 CALM 0 0 1015.0 - 0.0 - Partly cloudy 10 - - - -
24/10:30pm 21.6 SE 3 4 1015.2 - 0.0 - Partly cloudy 10 - - - -
24/10:00pm 22.3 SE 5 6 1014.9 - 0.0 - Mostly clear 10 - - - -
24/09:30pm 21.5 CALM 0 0 1014.5 - 0.0 - Mostly clear 10 - - - -
24/09:00pm 22.8 CALM 0 2 1013.9 R 0.0 Haze Mostly clear 15 - - - -
24/08:30pm 23.8 SE 4 4 1013.9 - 0.0 - Mostly clear 10 - - - -
24/08:00pm 24.6 SE 5 6 1013.6 - 0.0 - Mostly clear 10 - - - -
24/07:30pm 25.2 ESE 5 7 1013.2 - 0.0 - Mostly clear 10 - - - -
24/07:00pm 25.9 ESE 7 10 1013.0 - 0.0 - Mostly clear 10 - - - -
24/06:30pm 26.2 ESE 7 11 1012.7 - 0.0 - Partly cloudy 10 - - - -
24/06:00pm 26.8 ESE 11 14 1011.9 S 0.0 Smoke Mostly clear 20 - - - -
24/05:30pm 27.4 E 11 14 1012.1 - 0.0 - Partly cloudy 10 - - - -
24/05:00pm 27.9 E 12 17 1011.9 - 0.0 - Mostly clear 10 - - - -
24/04:30pm 28.2 E 13 18 1011.9 - 0.0 - Mostly clear 10 - - - -
24/04:00pm 29.0 ENE 11 16 1011.7 - 0.0 - Mostly clear 10 - - - -
24/03:30pm 29.3 E 12 15 1011.8 - 0.0 - Mostly clear 10 - - - -
24/03:00pm 28.7 E 13 17 1011.7 F 0.0 Smoke Mostly clear 20 - - - -
24/02:30pm 28.5 ENE 13 19 1012.3 - 0.0 - Partly cloudy 10 - - - -
24/02:00pm 29.1 E 11 14 1012.4 - 0.0 - Mostly clear 10 - - - -
24/01:30pm 29.4 E 13 20 1012.8 - 0.0 - Partly cloudy 10 - - - -
24/01:00pm 30.1 ENE 15 20 1013.3 - 0.0 - Partly cloudy 10 - - - -
24/12:30pm 29.7 E 13 17 1013.7 - 0.0 - Partly cloudy 10 - - - -
24/12:00pm 29.9 E 12 17 1014.0 F 0.0 Haze Mostly clear 18 - - - -
24/11:30am 29.5 E 12 17 1014.7 - 0.0 - Partly cloudy 10 - - - -
24/11:00am 29.3 ENE 12 19 1015.1 - 0.0 - Partly cloudy 10 - - - -
24/10:30am 29.3 E 13 20 1015.6 - 0.0 - Partly cloudy 10 - - - -
24/10:00am 28.8 E 13 19 1015.9 - 0.0 - Partly cloudy 10 - - - -
24/09:30am 28.5 E 14 18 1016.1 - 0.0 - Partly cloudy 10 - - - -
24/09:00am 28.8 E 11 15 1015.8 S 0.0 Haze Mostly clear 12 - - - -
24/08:30am 27.3 ENE 11 17 1016.0 - 0.0 - Partly cloudy 10 - - - -
24/08:00am 27.2 E 11 15 1016.0 - 0.0 - Partly cloudy 10 - - - -
24/07:30am 26.3 E 7 10 1015.5 - 0.0 - Mostly clear 9 - - - -
24/07:00am 24.5 ENE 4 6 1015.1 - 0.0 - Mostly clear 9 - - - -
24/06:30am 21.8 ESE 4 4 1014.8 - 0.0 - Mostly clear 9 - - - -
24/06:00am 21.1 ESE 4 5 1014.0 R 0.0 Mist Mostly clear 8 - - - -
24/05:30am 21.8 ESE 4 6 1014.0 - 0.0 - Partly cloudy 10 - - - -
24/05:00am 20.5 ESE 3 5 1013.6 - 0.0 - Partly cloudy 9 - - - -
24/04:30am 20.9 ESE 3 5 1013.3 - 0.0 - Partly cloudy 10 - - - -
24/04:00am 20.4 E 3 4 1012.9 - 0.0 - Partly cloudy 10 - - - -
24/03:33am 20.9 E 4 5 1012.9 - 0.0 - Partly cloudy 10 - - - -
24/03:30am 20.8 ESE 4 5 1012.8 - 0.0 - Partly cloudy 9 - - - -
24/03:02am 19.9 CALM 0 0 1012.7 - 0.0 - - 6 - - - -
24/03:00am 20.0 CALM 0 0 1012.3 - 0.0 - - 7 - - - -
24/02:30am 20.3 CALM 0 0 1012.8 - 0.0 - Partly cloudy 10 - - - -
24/02:00am 20.4 CALM 0 3 1013.1 - 0.0 - - 10 - - - -
24/01:30am 20.4 CALM 0 0 1013.4 - 0.0 - - 10 - - - -
24/01:00am 20.7 CALM 0 0 1013.7 - 0.0 - - 10 - - - -
24/12:30am 21.3 CALM 0 0 1014.1 - 0.0 - - 10 - - - -
24/12:00am 21.4 N 1 3 1014.0 - 0.0 - - 10 - - - -
 
Date/Time
CST
Temp

°C
Wind Pressure Rain
since 9am
mm
Weather Cloud Vis
km
Sea
Height
m
Swell
Dir
 
Speed
knots
Gust
knots
hPa Trend Height
m
Period
s
Dir
23/11:30pm 22.5 ESE 4 4 1014.7 - 0.0 - - 10 - - - -
23/11:00pm 22.8 ENE 3 4 1014.7 - 0.0 - Partly cloudy 10 - - - -
23/10:30pm 22.9 ESE 3 4 1015.0 - 0.0 - - 9 - - - -
23/10:00pm 23.6 ESE 4 4 1014.9 - 0.0 - Mostly clear 10 - - - -
23/09:30pm 24.1 ESE 4 4 1014.7 - 0.0 - Mostly clear 10 - - - -
23/09:00pm 24.2 ESE 4 5 1013.8 R 0.0 Haze Mostly clear 13 - - - -
23/08:30pm 24.7 ESE 5 6 1013.8 - 0.0 - Mostly clear 10 - - - -
23/08:00pm 25.1 ESE 5 7 1013.5 - 0.0 - Mostly clear 10 - - - -
23/07:30pm 25.9 ESE 5 6 1013.2 - 0.0 - Mostly clear 10 - - - -
23/07:00pm 26.3 ESE 7 9 1013.0 - 0.0 - Mostly clear 10 - - - -
23/06:30pm 26.6 E 9 11 1012.7 - 0.0 - Mostly clear 10 - - - -
23/06:00pm 27.1 E 8 11 1012.0 R 0.0 Smoke Partly cloudy 19 - - - -
23/05:30pm 27.4 ESE 11 13 1012.1 - 0.0 - Mostly clear 10 - - - -
23/05:00pm 28.7 ESE 11 15 1011.8 - 0.0 - Mostly clear 10 - - - -
23/04:30pm 29.0 E 12 16 1011.7 - 0.0 - Mostly clear 10 - - - -
23/04:00pm 30.0 E 11 15 1011.7 - 0.0 - Mostly clear 10 - - - -
23/03:30pm 29.8 ESE 12 18 1011.8 - 0.0 - Mostly clear 10 - - - -
23/03:00pm 29.8 E 13 16 1011.6 R 0.0 Smoke Partly cloudy 19 - - - -
23/02:30pm 29.9 E 11 19 1012.2 - 0.0 - Mostly clear 10 - - - -
23/02:00pm 30.1 ESE 11 15 1012.4 - 0.0 - Mostly clear 10 - - - -
23/01:30pm 31.7 ESE 11 16 1012.7 - 0.0 - Partly cloudy 10 - - - -
23/01:00pm 30.5 E 11 17 1013.1 - 0.0 - Partly cloudy 10 - - - -
23/12:30pm 30.8 ENE 13 17 1013.5 - 0.0 - Partly cloudy 10 - - - -
23/12:00pm 28.9 ESE 11 17 1013.4 F 0.0 Fine Partly cloudy 22 - - - -
23/11:30am 30.1 ENE 11 19 1014.2 - 0.0 - Mostly clear 10 - - - -
23/11:00am 29.1 ENE 9 12 1014.4 - 0.0 - Mostly clear 10 - - - -
23/10:30am 29.3 ENE 10 15 1014.6 - 0.0 - Mostly clear 10 - - - -
23/10:00am 29.1 E 9 14 1014.9 - 0.0 - Mostly clear 10 - - - -
23/09:30am 28.7 ENE 8 12 1015.0 - 0.0 - Mostly clear 10 - - - -
23/09:00am 28.8 ENE 8 10 1014.8 F 0.0 Fine Mostly clear 22 - - - -
23/08:30am 27.7 ENE 7 10 1015.1 - 0.0 - Mostly clear 10 - - - -
23/08:00am 27.2 E 7 11 1015.0 - 0.0 - Partly cloudy 10 - - - -
23/07:30am 25.8 E 6 7 1014.8 - 0.0 - Mostly clear 10 - - - -
23/07:00am 24.5 ESE 3 5 1014.4 - 0.0 - Mostly clear 10 - - - -
23/06:30am 20.9 ESE 3 3 1014.3 - 0.0 - Mostly clear 10 - - - -
23/06:00am 21.0 ENE 4 6 1013.5 F 0.0 Fine Mostly clear 12 - - - -
23/05:30am 20.0 CALM 0 0 1013.7 - 0.0 - - 10 - - - -
23/05:00am 20.5 E 4 4 1013.5 - 0.0 - - 10 - - - -
23/04:30am 20.3 NE 1 5 1013.2 - 0.0 - Partly cloudy 10 - - - -
23/04:00am 20.0 CALM 0 0 1013.2 - 0.0 - Partly cloudy 10 - - - -
23/03:30am 21.3 SE 1 4 1013.2 - 0.0 - Partly cloudy 10 - - - -
23/03:00am 19.6 N 1 4 1012.6 - 0.0 - Mostly clear 10 - - - -
23/02:30am 19.9 CALM 0 0 1013.2 - 0.0 - Partly cloudy 10 - - - -
23/02:00am 20.1 CALM 0 0 1013.3 - 0.0 - Cloudy 10 - - - -
23/01:30am 20.2 CALM 0 0 1013.6 - 0.0 - Partly cloudy 9 - - - -
23/01:00am 20.3 CALM 0 0 1013.7 - 0.0 - - 10 - - - -
23/12:30am 20.6 CALM 0 0 1014.0 - 0.0 - - 10 - - - -
23/12:00am 20.8 CALM 0 0 1013.8 - 0.0 - - 10 - - - -
 
Date/Time
CST
Temp

°C
Wind Pressure Rain
since 9am
mm
Weather Cloud Vis
km
Sea
Height
m
Swell
Dir
 
Speed
knots
Gust
knots
hPa Trend Height
m
Period
s
Dir
22/11:30pm 21.1 E 2 3 1014.5 - 0.0 - Partly cloudy 10 - - - -
22/11:00pm 21.6 N 3 4 1014.6 - 0.0 - Partly cloudy 10 - - - -
22/10:30pm 21.9 E 3 3 1014.6 - 0.0 - - 10 - - - -
22/10:00pm 23.0 ESE 4 4 1014.6 - 0.0 - Mostly clear 10 - - - -
22/09:30pm 23.8 E 4 5 1014.4 - 0.0 - Mostly clear 10 - - - -
22/09:00pm 25.1 E 5 7 1013.7 F 0.0 Fine Mostly clear 21 - - - -
22/08:30pm 25.3 ESE 5 7 1013.9 - 0.0 - Mostly clear 10 - - - -
22/08:00pm 25.7 ESE 6 7 1013.7 - 0.0 - Mostly clear 10 - - - -
22/07:30pm 25.9 E 7 9 1013.4 - 0.0 - Mostly clear 10 - - - -
22/07:00pm 26.2 ESE 8 11 1013.2 - 0.0 - Mostly clear 10 - - - -
22/06:30pm 26.5 E 9 14 1013.1 - 0.0 - Mostly clear 10 - - - -
22/06:00pm 27.0 E 9 13 1012.5 R 0.0 Fine Mostly clear 20 - - - -
22/05:30pm 27.9 E 10 14 1012.7 - 0.0 - Partly cloudy 10 - - - -
22/05:00pm 27.9 E 10 14 1012.6 - 0.0 - Partly cloudy 10 - - - -
22/04:30pm 29.1 E 11 16 1012.5 - 0.0 - Mostly clear 10 - - - -
22/04:00pm 29.5 E 11 16 1012.4 - 0.0 - Mostly clear 10 - - - -
22/03:30pm 29.2 E 11 15 1012.5 - 0.0 - Mostly clear 10 - - - -
22/03:00pm 30.6 E 12 16 1012.2 S 0.0 Smoke Mostly clear 21 - - - -

Other Formats:

Comma delimited format used in spreadsheet applications
http://www.bom.gov.au/fwo/IDD60701/IDD60701.94150.axf

JavaScript Object Notation format (JSON) in row-major order
http://www.bom.gov.au/fwo/IDD60701/IDD60701.94150.json